Wednesday, October 22, 2014
06:29 UTC
  |  Log In   |  Register Free
Airport Search:

Coleman Municipal Airport
(KCOM)

Coleman Municipal Airport Diagram
No Airport Diagram Available

FAA data valid effective September 18, 2014 - November 13, 2014 (unless otherwise noted).

 
 
 
 
 
 
 
 
 
 
 
 
 
 

Current Aviation Weather for Coleman Municipal Airport (KCOM)

The most recent METAR observation for KCOM was updated at: 0610
METAR Summary (Translated METAR)
KCOM
220555Z AUTO 16004KT 10SM CLR 19/10 A3008 RMK AO2 T01890103 10237 20189 402710118
KBWD
220555Z AUTO 00000KT 10SM CLR 17/10 A3008 RMK AO2
(23 nm SE from KCOM)
KABI
220552Z 15008KT 10SM CLR 17/10 A3007 RMK AO2 SLP162 T01720100 10239 20172 402720156 58001
(37 nm NW from KCOM)
TAF Summary (Translated TAF)
KABI
(37 nm NW from KCOM)
220520Z 2206/2306 VRB06KT P6SM SCT050 FM221800 17011KT P6SM BKN250
  Airport Weather Conditions for KCOM

 Current Weather at COM
67° F
Fair
South winds at 8.1 mph
COM NOAA Radar

Pressure: 30.08 in
Humidity: 57%
Wind: South at 8.1 MPH (7 KT)
Dew Point: 51.8°F
Visibility: 10.00 mi


Airport Weather Forecast for KCOM

Translated METAR and TAF for KCOM
Translated METAR for KCOM (0624 UTC 22 October 2014)
found at http://aviationweather.gov/adds/metars/
 
METAR text: KCOM 220615Z AUTO 15004KT 10SM CLR 19/10 A3008 RMK AO2 T01890100
Conditions at: KCOM (COLEMAN MUNI , TX, US) observed 0615 UTC 22 October 2014
Temperature: 18.9°C (66°F)
Dewpoint: 10.0°C (50°F) [RH = 56%]
Pressure (altimeter): 30.08 inches Hg (1018.7 mb)
Winds: from the SSE (150 degrees) at 5 MPH (4 knots; 2.1 m/s)
Visibility: 10 or more miles (16+ km)
Ceiling: at least 12,000 feet AGL
Clouds: sky clear below 12,000 feet AGL
Weather: automated observation with no human augmentation;
there may or may not be significant weather present at this time
Translated TAF for KCOM

There is no translated TAF available for this airport

Find All Airport Services Find A Hotel Find A Rental Car Find A Golf Course Find A Restaurant $100 Hamburger



FBO's on the Field
FBO Company Facility Photos Services Transportation Aviation Fuel Prices: Prices include tax
Catering Weather Repair Courtesy Rental Type 100LL JetA JetA+ MOGAS 8087
 
Add another FBO Facility Photos Catering Weather Repair Courtesy Rental Type 100LL JetA JetA+ MOGAS 8087
Services Transportation Aviation Fuel Prices: Prices include tax
There are no FBO's currently reporting fuel at COM. List your FBO now


model-print
model-print
model-print
model-print